sensor_id;sensor_type;location;lat;lon;timestamp;P1;durP1;ratioP1;P2;durP2;ratioP2
52984;SDS011;40499;47.830;19.026;2022-08-19T00:01:19;13.32;;;6.90;;
52984;SDS011;40499;47.830;19.026;2022-08-19T00:03:45;11.02;;;6.85;;
52984;SDS011;40499;47.830;19.026;2022-08-19T00:06:11;9.43;;;6.70;;
52984;SDS011;40499;47.830;19.026;2022-08-19T00:08:37;10.77;;;6.97;;
52984;SDS011;40499;47.830;19.026;2022-08-19T00:11:02;10.77;;;7.20;;
52984;SDS011;40499;47.830;19.026;2022-08-19T00:13:28;9.55;;;6.13;;
52984;SDS011;40499;47.830;19.026;2022-08-19T00:15:54;11.25;;;6.75;;
52984;SDS011;40499;47.830;19.026;2022-08-19T00:18:20;9.13;;;7.25;;
52984;SDS011;40499;47.830;19.026;2022-08-19T00:20:45;9.38;;;6.95;;
52984;SDS011;40499;47.830;19.026;2022-08-19T00:23:11;8.45;;;6.88;;
52984;SDS011;40499;47.830;19.026;2022-08-19T00:25:36;10.38;;;6.40;;
52984;SDS011;40499;47.830;19.026;2022-08-19T00:28:02;12.48;;;7.10;;
52984;SDS011;40499;47.830;19.026;2022-08-19T00:30:28;10.98;;;6.47;;
52984;SDS011;40499;47.830;19.026;2022-08-19T00:32:53;7.78;;;6.70;;
52984;SDS011;40499;47.830;19.026;2022-08-19T00:35:22;11.98;;;6.43;;
52984;SDS011;40499;47.830;19.026;2022-08-19T00:37:48;8.23;;;6.57;;
52984;SDS011;40499;47.830;19.026;2022-08-19T00:40:15;9.60;;;6.88;;
52984;SDS011;40499;47.830;19.026;2022-08-19T00:42:42;12.07;;;6.93;;
52984;SDS011;40499;47.830;19.026;2022-08-19T00:45:09;9.70;;;7.15;;
52984;SDS011;40499;47.830;19.026;2022-08-19T00:47:38;9.27;;;6.50;;
52984;SDS011;40499;47.830;19.026;2022-08-19T00:50:03;8.80;;;6.95;;
52984;SDS011;40499;47.830;19.026;2022-08-19T00:52:31;7.22;;;6.50;;
52984;SDS011;40499;47.830;19.026;2022-08-19T00:54:59;9.93;;;6.90;;
52984;SDS011;40499;47.830;19.026;2022-08-19T00:57:29;9.75;;;6.82;;
52984;SDS011;40499;47.830;19.026;2022-08-19T00:59:58;9.40;;;7.00;;
52984;SDS011;40499;47.830;19.026;2022-08-19T01:02:25;11.50;;;7.22;;
52984;SDS011;40499;47.830;19.026;2022-08-19T01:04:52;9.13;;;7.07;;
52984;SDS011;40499;47.830;19.026;2022-08-19T01:07:18;10.80;;;6.63;;
52984;SDS011;40499;47.830;19.026;2022-08-19T01:09:43;8.25;;;7.10;;
52984;SDS011;40499;47.830;19.026;2022-08-19T01:12:09;7.88;;;6.97;;
52984;SDS011;40499;47.830;19.026;2022-08-19T01:14:34;9.52;;;6.82;;
52984;SDS011;40499;47.830;19.026;2022-08-19T01:17:02;11.32;;;7.50;;
52984;SDS011;40499;47.830;19.026;2022-08-19T01:19:30;10.65;;;7.18;;
52984;SDS011;40499;47.830;19.026;2022-08-19T01:22:05;8.10;;;6.35;;
52984;SDS011;40499;47.830;19.026;2022-08-19T01:24:36;10.93;;;7.03;;
52984;SDS011;40499;47.830;19.026;2022-08-19T01:27:03;13.20;;;6.90;;
52984;SDS011;40499;47.830;19.026;2022-08-19T01:29:30;9.93;;;7.00;;
52984;SDS011;40499;47.830;19.026;2022-08-19T01:31:55;9.48;;;6.38;;
52984;SDS011;40499;47.830;19.026;2022-08-19T01:34:21;9.43;;;7.03;;
52984;SDS011;40499;47.830;19.026;2022-08-19T01:36:47;11.05;;;6.07;;
52984;SDS011;40499;47.830;19.026;2022-08-19T01:39:15;7.68;;;6.30;;
52984;SDS011;40499;47.830;19.026;2022-08-19T01:41:44;8.52;;;6.57;;
52984;SDS011;40499;47.830;19.026;2022-08-19T01:44:11;10.70;;;6.90;;
52984;SDS011;40499;47.830;19.026;2022-08-19T01:46:37;9.98;;;6.68;;
52984;SDS011;40499;47.830;19.026;2022-08-19T01:49:04;11.27;;;6.95;;
52984;SDS011;40499;47.830;19.026;2022-08-19T01:51:30;12.38;;;7.07;;
52984;SDS011;40499;47.830;19.026;2022-08-19T01:53:56;9.45;;;6.55;;
52984;SDS011;40499;47.830;19.026;2022-08-19T01:56:22;8.85;;;6.85;;
52984;SDS011;40499;47.830;19.026;2022-08-19T01:58:51;12.48;;;6.63;;
52984;SDS011;40499;47.830;19.026;2022-08-19T02:01:22;10.93;;;6.93;;
52984;SDS011;40499;47.830;19.026;2022-08-19T02:03:47;10.48;;;6.90;;
52984;SDS011;40499;47.830;19.026;2022-08-19T02:06:13;9.60;;;6.15;;
52984;SDS011;40499;47.830;19.026;2022-08-19T02:08:38;9.73;;;7.30;;
52984;SDS011;40499;47.830;19.026;2022-08-19T02:11:05;8.07;;;6.55;;
52984;SDS011;40499;47.830;19.026;2022-08-19T02:13:31;9.68;;;6.57;;
52984;SDS011;40499;47.830;19.026;2022-08-19T02:15:58;8.73;;;6.85;;
52984;SDS011;40499;47.830;19.026;2022-08-19T02:18:23;9.63;;;7.15;;
52984;SDS011;40499;47.830;19.026;2022-08-19T02:20:49;11.45;;;7.43;;
52984;SDS011;40499;47.830;19.026;2022-08-19T02:23:15;10.10;;;7.05;;
52984;SDS011;40499;47.830;19.026;2022-08-19T02:25:42;10.95;;;7.40;;
52984;SDS011;40499;47.830;19.026;2022-08-19T02:28:09;13.52;;;6.85;;
52984;SDS011;40499;47.830;19.026;2022-08-19T02:30:36;9.93;;;6.90;;
52984;SDS011;40499;47.830;19.026;2022-08-19T02:33:03;8.50;;;6.63;;
52984;SDS011;40499;47.830;19.026;2022-08-19T02:35:28;8.68;;;6.85;;
52984;SDS011;40499;47.830;19.026;2022-08-19T02:37:54;13.88;;;7.65;;
52984;SDS011;40499;47.830;19.026;2022-08-19T02:40:38;9.32;;;6.28;;
52984;SDS011;40499;47.830;19.026;2022-08-19T02:43:04;7.50;;;6.70;;
52984;SDS011;40499;47.830;19.026;2022-08-19T02:45:36;10.30;;;6.55;;
52984;SDS011;40499;47.830;19.026;2022-08-19T02:48:04;11.52;;;7.05;;
52984;SDS011;40499;47.830;19.026;2022-08-19T02:50:30;9.43;;;6.40;;
52984;SDS011;40499;47.830;19.026;2022-08-19T02:52:56;11.32;;;6.97;;
52984;SDS011;40499;47.830;19.026;2022-08-19T02:55:21;8.70;;;6.70;;
52984;SDS011;40499;47.830;19.026;2022-08-19T02:57:47;7.97;;;7.15;;
52984;SDS011;40499;47.830;19.026;2022-08-19T03:00:13;10.40;;;6.93;;
52984;SDS011;40499;47.830;19.026;2022-08-19T03:02:39;11.32;;;7.10;;
52984;SDS011;40499;47.830;19.026;2022-08-19T03:05:05;7.40;;;6.28;;
52984;SDS011;40499;47.830;19.026;2022-08-19T03:07:32;7.47;;;6.65;;
52984;SDS011;40499;47.830;19.026;2022-08-19T03:09:58;10.10;;;6.10;;
52984;SDS011;40499;47.830;19.026;2022-08-19T03:12:23;31.08;;;7.97;;
52984;SDS011;40499;47.830;19.026;2022-08-19T03:14:49;19.73;;;7.05;;
52984;SDS011;40499;47.830;19.026;2022-08-19T03:17:14;13.93;;;7.80;;
52984;SDS011;40499;47.830;19.026;2022-08-19T03:19:39;12.70;;;7.03;;
52984;SDS011;40499;47.830;19.026;2022-08-19T03:22:05;9.38;;;7.38;;
52984;SDS011;40499;47.830;19.026;2022-08-19T03:24:31;9.63;;;6.57;;
52984;SDS011;40499;47.830;19.026;2022-08-19T03:26:57;7.30;;;6.57;;
52984;SDS011;40499;47.830;19.026;2022-08-19T03:29:24;9.27;;;6.65;;
52984;SDS011;40499;47.830;19.026;2022-08-19T03:31:51;11.55;;;7.05;;
52984;SDS011;40499;47.830;19.026;2022-08-19T03:34:27;10.05;;;6.82;;
52984;SDS011;40499;47.830;19.026;2022-08-19T03:36:56;10.10;;;6.68;;
52984;SDS011;40499;47.830;19.026;2022-08-19T03:39:24;10.95;;;7.03;;
52984;SDS011;40499;47.830;19.026;2022-08-19T03:41:51;10.02;;;7.25;;
52984;SDS011;40499;47.830;19.026;2022-08-19T03:44:21;11.63;;;6.85;;
52984;SDS011;40499;47.830;19.026;2022-08-19T03:46:48;8.85;;;7.15;;
52984;SDS011;40499;47.830;19.026;2022-08-19T03:49:15;11.93;;;7.80;;
52984;SDS011;40499;47.830;19.026;2022-08-19T03:51:41;87.30;;;11.00;;
52984;SDS011;40499;47.830;19.026;2022-08-19T03:54:08;62.40;;;11.68;;
52984;SDS011;40499;47.830;19.026;2022-08-19T03:56:37;9.55;;;6.70;;
52984;SDS011;40499;47.830;19.026;2022-08-19T03:59:04;8.82;;;7.07;;
52984;SDS011;40499;47.830;19.026;2022-08-19T04:01:31;8.30;;;7.40;;
52984;SDS011;40499;47.830;19.026;2022-08-19T04:03:56;7.25;;;6.55;;
52984;SDS011;40499;47.830;19.026;2022-08-19T04:06:30;9.40;;;7.30;;
52984;SDS011;40499;47.830;19.026;2022-08-19T04:08:58;9.20;;;6.80;;
52984;SDS011;40499;47.830;19.026;2022-08-19T04:11:27;14.30;;;6.53;;
52984;SDS011;40499;47.830;19.026;2022-08-19T04:13:55;65.10;;;10.65;;
52984;SDS011;40499;47.830;19.026;2022-08-19T04:16:24;17.02;;;7.47;;
52984;SDS011;40499;47.830;19.026;2022-08-19T04:18:53;11.48;;;6.82;;
52984;SDS011;40499;47.830;19.026;2022-08-19T04:21:20;8.88;;;6.72;;
52984;SDS011;40499;47.830;19.026;2022-08-19T04:23:48;11.05;;;6.90;;
52984;SDS011;40499;47.830;19.026;2022-08-19T04:26:14;10.73;;;7.53;;
52984;SDS011;40499;47.830;19.026;2022-08-19T04:28:44;8.55;;;7.25;;
52984;SDS011;40499;47.830;19.026;2022-08-19T04:31:14;11.10;;;6.60;;
52984;SDS011;40499;47.830;19.026;2022-08-19T04:33:42;12.90;;;7.00;;
52984;SDS011;40499;47.830;19.026;2022-08-19T04:36:07;8.90;;;6.70;;
52984;SDS011;40499;47.830;19.026;2022-08-19T04:38:40;8.18;;;6.85;;
52984;SDS011;40499;47.830;19.026;2022-08-19T04:41:05;10.88;;;7.00;;
52984;SDS011;40499;47.830;19.026;2022-08-19T04:43:49;19.75;;;7.47;;
52984;SDS011;40499;47.830;19.026;2022-08-19T04:46:15;17.55;;;8.50;;
52984;SDS011;40499;47.830;19.026;2022-08-19T04:48:41;45.92;;;9.63;;
52984;SDS011;40499;47.830;19.026;2022-08-19T04:51:09;19.20;;;6.93;;
52984;SDS011;40499;47.830;19.026;2022-08-19T04:53:38;10.88;;;6.50;;
52984;SDS011;40499;47.830;19.026;2022-08-19T04:56:07;10.07;;;6.93;;
52984;SDS011;40499;47.830;19.026;2022-08-19T04:58:38;9.32;;;7.10;;
52984;SDS011;40499;47.830;19.026;2022-08-19T05:01:07;10.40;;;7.28;;
52984;SDS011;40499;47.830;19.026;2022-08-19T05:03:44;9.70;;;6.82;;
52984;SDS011;40499;47.830;19.026;2022-08-19T05:06:11;15.55;;;6.57;;
52984;SDS011;40499;47.830;19.026;2022-08-19T05:08:38;14.40;;;7.57;;
52984;SDS011;40499;47.830;19.026;2022-08-19T05:13:45;11.23;;;7.18;;
52984;SDS011;40499;47.830;19.026;2022-08-19T05:16:12;14.48;;;7.57;;
52984;SDS011;40499;47.830;19.026;2022-08-19T05:18:39;10.80;;;6.97;;
52984;SDS011;40499;47.830;19.026;2022-08-19T05:21:24;13.10;;;7.50;;
52984;SDS011;40499;47.830;19.026;2022-08-19T05:24:09;9.00;;;7.18;;
52984;SDS011;40499;47.830;19.026;2022-08-19T05:26:38;8.38;;;6.68;;
52984;SDS011;40499;47.830;19.026;2022-08-19T05:29:06;9.07;;;6.18;;
52984;SDS011;40499;47.830;19.026;2022-08-19T05:31:33;11.23;;;6.90;;
52984;SDS011;40499;47.830;19.026;2022-08-19T05:34:01;8.70;;;6.85;;
52984;SDS011;40499;47.830;19.026;2022-08-19T05:36:32;10.73;;;6.50;;
52984;SDS011;40499;47.830;19.026;2022-08-19T05:39:00;10.13;;;6.75;;
52984;SDS011;40499;47.830;19.026;2022-08-19T05:41:26;16.20;;;7.85;;
52984;SDS011;40499;47.830;19.026;2022-08-19T05:44:00;13.07;;;6.70;;
52984;SDS011;40499;47.830;19.026;2022-08-19T05:46:27;8.68;;;6.32;;
52984;SDS011;40499;47.830;19.026;2022-08-19T05:48:53;9.13;;;6.57;;
52984;SDS011;40499;47.830;19.026;2022-08-19T05:51:21;12.32;;;7.03;;
52984;SDS011;40499;47.830;19.026;2022-08-19T05:53:47;11.82;;;6.90;;
52984;SDS011;40499;47.830;19.026;2022-08-19T05:56:14;13.82;;;6.85;;
52984;SDS011;40499;47.830;19.026;2022-08-19T05:58:41;11.02;;;6.68;;
52984;SDS011;40499;47.830;19.026;2022-08-19T06:01:11;12.80;;;6.35;;
52984;SDS011;40499;47.830;19.026;2022-08-19T06:03:38;13.45;;;6.90;;
52984;SDS011;40499;47.830;19.026;2022-08-19T06:06:04;17.50;;;7.18;;
52984;SDS011;40499;47.830;19.026;2022-08-19T06:08:31;9.70;;;6.70;;
52984;SDS011;40499;47.830;19.026;2022-08-19T06:10:57;8.75;;;6.60;;
52984;SDS011;40499;47.830;19.026;2022-08-19T06:13:23;8.70;;;6.50;;
52984;SDS011;40499;47.830;19.026;2022-08-19T06:15:49;13.73;;;7.10;;
52984;SDS011;40499;47.830;19.026;2022-08-19T06:18:14;9.95;;;6.30;;
52984;SDS011;40499;47.830;19.026;2022-08-19T06:20:41;7.93;;;6.43;;
52984;SDS011;40499;47.830;19.026;2022-08-19T06:23:07;9.52;;;6.32;;
52984;SDS011;40499;47.830;19.026;2022-08-19T06:25:33;9.80;;;6.53;;
52984;SDS011;40499;47.830;19.026;2022-08-19T06:27:59;9.23;;;5.95;;
52984;SDS011;40499;47.830;19.026;2022-08-19T06:30:24;8.32;;;5.78;;
52984;SDS011;40499;47.830;19.026;2022-08-19T06:32:50;8.93;;;6.13;;
52984;SDS011;40499;47.830;19.026;2022-08-19T06:35:15;9.60;;;5.95;;
52984;SDS011;40499;47.830;19.026;2022-08-19T06:37:41;12.85;;;6.03;;
52984;SDS011;40499;47.830;19.026;2022-08-19T06:40:08;7.63;;;6.13;;
52984;SDS011;40499;47.830;19.026;2022-08-19T06:42:35;10.20;;;5.88;;
52984;SDS011;40499;47.830;19.026;2022-08-19T06:45:03;7.72;;;5.75;;
52984;SDS011;40499;47.830;19.026;2022-08-19T06:47:31;9.18;;;5.50;;
52984;SDS011;40499;47.830;19.026;2022-08-19T06:49:58;8.18;;;5.35;;
52984;SDS011;40499;47.830;19.026;2022-08-19T06:52:32;7.75;;;5.57;;
52984;SDS011;40499;47.830;19.026;2022-08-19T06:54:59;7.72;;;5.45;;
52984;SDS011;40499;47.830;19.026;2022-08-19T06:57:25;7.43;;;5.13;;
52984;SDS011;40499;47.830;19.026;2022-08-19T06:59:52;7.72;;;5.68;;
52984;SDS011;40499;47.830;19.026;2022-08-19T07:02:17;5.90;;;5.05;;
52984;SDS011;40499;47.830;19.026;2022-08-19T07:04:44;8.07;;;5.60;;
52984;SDS011;40499;47.830;19.026;2022-08-19T07:07:11;7.32;;;5.65;;
52984;SDS011;40499;47.830;19.026;2022-08-19T07:09:40;6.72;;;5.07;;
52984;SDS011;40499;47.830;19.026;2022-08-19T07:12:09;5.97;;;5.18;;
52984;SDS011;40499;47.830;19.026;2022-08-19T07:14:38;11.20;;;5.13;;
52984;SDS011;40499;47.830;19.026;2022-08-19T07:17:05;8.77;;;5.05;;
52984;SDS011;40499;47.830;19.026;2022-08-19T07:19:32;5.93;;;5.15;;
52984;SDS011;40499;47.830;19.026;2022-08-19T07:22:00;16.13;;;5.30;;
52984;SDS011;40499;47.830;19.026;2022-08-19T07:24:27;10.30;;;5.00;;
52984;SDS011;40499;47.830;19.026;2022-08-19T07:26:54;10.35;;;5.50;;
52984;SDS011;40499;47.830;19.026;2022-08-19T07:29:22;9.57;;;5.03;;
52984;SDS011;40499;47.830;19.026;2022-08-19T07:31:49;10.32;;;5.45;;
52984;SDS011;40499;47.830;19.026;2022-08-19T07:34:16;7.68;;;4.70;;
52984;SDS011;40499;47.830;19.026;2022-08-19T07:36:42;10.27;;;4.97;;
52984;SDS011;40499;47.830;19.026;2022-08-19T07:39:15;12.02;;;5.70;;
52984;SDS011;40499;47.830;19.026;2022-08-19T07:41:44;7.43;;;4.70;;
52984;SDS011;40499;47.830;19.026;2022-08-19T07:44:11;12.38;;;5.05;;
52984;SDS011;40499;47.830;19.026;2022-08-19T07:46:38;9.70;;;5.07;;
52984;SDS011;40499;47.830;19.026;2022-08-19T07:49:06;6.03;;;4.70;;
52984;SDS011;40499;47.830;19.026;2022-08-19T07:51:33;7.88;;;5.18;;
52984;SDS011;40499;47.830;19.026;2022-08-19T07:53:59;7.45;;;4.90;;
52984;SDS011;40499;47.830;19.026;2022-08-19T07:56:25;10.02;;;5.35;;
52984;SDS011;40499;47.830;19.026;2022-08-19T07:58:51;5.82;;;4.65;;
52984;SDS011;40499;47.830;19.026;2022-08-19T08:01:22;7.05;;;4.45;;
52984;SDS011;40499;47.830;19.026;2022-08-19T08:03:51;6.20;;;4.50;;
52984;SDS011;40499;47.830;19.026;2022-08-19T08:06:36;7.82;;;5.10;;
52984;SDS011;40499;47.830;19.026;2022-08-19T08:09:26;7.88;;;4.78;;
52984;SDS011;40499;47.830;19.026;2022-08-19T08:12:00;9.60;;;4.60;;
52984;SDS011;40499;47.830;19.026;2022-08-19T08:14:40;12.57;;;4.78;;
52984;SDS011;40499;47.830;19.026;2022-08-19T08:17:17;7.53;;;3.72;;
52984;SDS011;40499;47.830;19.026;2022-08-19T08:19:46;11.40;;;4.60;;
52984;SDS011;40499;47.830;19.026;2022-08-19T08:22:14;10.20;;;4.82;;
52984;SDS011;40499;47.830;19.026;2022-08-19T08:25:16;8.07;;;4.07;;
52984;SDS011;40499;47.830;19.026;2022-08-19T08:27:44;8.77;;;4.30;;
52984;SDS011;40499;47.830;19.026;2022-08-19T08:30:12;7.07;;;4.22;;
52984;SDS011;40499;47.830;19.026;2022-08-19T08:32:40;6.88;;;3.88;;
52984;SDS011;40499;47.830;19.026;2022-08-19T08:35:07;8.55;;;4.03;;
52984;SDS011;40499;47.830;19.026;2022-08-19T08:37:34;8.50;;;4.13;;
52984;SDS011;40499;47.830;19.026;2022-08-19T08:40:10;7.35;;;4.35;;
52984;SDS011;40499;47.830;19.026;2022-08-19T08:42:44;9.25;;;3.90;;
52984;SDS011;40499;47.830;19.026;2022-08-19T08:45:19;8.43;;;4.35;;
52984;SDS011;40499;47.830;19.026;2022-08-19T08:47:47;16.30;;;5.15;;
52984;SDS011;40499;47.830;19.026;2022-08-19T08:52:54;6.25;;;3.38;;
52984;SDS011;40499;47.830;19.026;2022-08-19T08:55:23;6.32;;;3.50;;
52984;SDS011;40499;47.830;19.026;2022-08-19T08:57:57;25.77;;;4.68;;
52984;SDS011;40499;47.830;19.026;2022-08-19T09:00:27;7.22;;;3.75;;
52984;SDS011;40499;47.830;19.026;2022-08-19T09:03:03;5.90;;;3.47;;
52984;SDS011;40499;47.830;19.026;2022-08-19T09:08:10;5.50;;;3.33;;
52984;SDS011;40499;47.830;19.026;2022-08-19T09:10:55;6.95;;;3.20;;
52984;SDS011;40499;47.830;19.026;2022-08-19T09:13:25;6.13;;;3.28;;
52984;SDS011;40499;47.830;19.026;2022-08-19T09:16:06;6.03;;;2.85;;
52984;SDS011;40499;47.830;19.026;2022-08-19T09:18:45;4.18;;;2.95;;
52984;SDS011;40499;47.830;19.026;2022-08-19T09:21:12;3.72;;;2.97;;
52984;SDS011;40499;47.830;19.026;2022-08-19T09:23:38;5.28;;;3.00;;
52984;SDS011;40499;47.830;19.026;2022-08-19T09:26:08;5.30;;;3.05;;
52984;SDS011;40499;47.830;19.026;2022-08-19T09:28:38;7.15;;;3.80;;
52984;SDS011;40499;47.830;19.026;2022-08-19T09:31:15;4.75;;;3.10;;
52984;SDS011;40499;47.830;19.026;2022-08-19T09:33:43;4.97;;;2.42;;
52984;SDS011;40499;47.830;19.026;2022-08-19T09:36:09;3.95;;;3.22;;
52984;SDS011;40499;47.830;19.026;2022-08-19T09:38:37;6.93;;;2.90;;
52984;SDS011;40499;47.830;19.026;2022-08-19T09:41:07;4.63;;;2.97;;
52984;SDS011;40499;47.830;19.026;2022-08-19T09:43:38;5.05;;;3.25;;
52984;SDS011;40499;47.830;19.026;2022-08-19T09:46:05;7.03;;;3.53;;
52984;SDS011;40499;47.830;19.026;2022-08-19T09:48:32;4.65;;;3.00;;
52984;SDS011;40499;47.830;19.026;2022-08-19T09:51:08;7.50;;;2.70;;
52984;SDS011;40499;47.830;19.026;2022-08-19T09:53:35;8.00;;;2.90;;
52984;SDS011;40499;47.830;19.026;2022-08-19T09:56:02;3.63;;;3.20;;
52984;SDS011;40499;47.830;19.026;2022-08-19T09:58:28;5.20;;;3.22;;
52984;SDS011;40499;47.830;19.026;2022-08-19T10:00:55;8.18;;;3.22;;
52984;SDS011;40499;47.830;19.026;2022-08-19T10:03:22;6.03;;;3.22;;
52984;SDS011;40499;47.830;19.026;2022-08-19T10:05:47;4.80;;;3.60;;
52984;SDS011;40499;47.830;19.026;2022-08-19T10:08:13;8.32;;;3.30;;
52984;SDS011;40499;47.830;19.026;2022-08-19T10:10:40;5.35;;;3.33;;
52984;SDS011;40499;47.830;19.026;2022-08-19T10:13:09;4.57;;;3.40;;
52984;SDS011;40499;47.830;19.026;2022-08-19T10:15:36;5.55;;;3.67;;
52984;SDS011;40499;47.830;19.026;2022-08-19T10:18:04;10.18;;;3.08;;
52984;SDS011;40499;47.830;19.026;2022-08-19T10:20:31;14.77;;;3.65;;
52984;SDS011;40499;47.830;19.026;2022-08-19T10:22:56;3.17;;;2.78;;
52984;SDS011;40499;47.830;19.026;2022-08-19T10:25:24;5.28;;;2.92;;
52984;SDS011;40499;47.830;19.026;2022-08-19T10:27:51;6.57;;;3.22;;
52984;SDS011;40499;47.830;19.026;2022-08-19T10:30:17;10.02;;;3.33;;
52984;SDS011;40499;47.830;19.026;2022-08-19T10:32:43;7.45;;;3.47;;
52984;SDS011;40499;47.830;19.026;2022-08-19T10:35:10;6.25;;;3.47;;
52984;SDS011;40499;47.830;19.026;2022-08-19T10:37:37;7.97;;;3.38;;
52984;SDS011;40499;47.830;19.026;2022-08-19T10:40:04;4.28;;;3.50;;
52984;SDS011;40499;47.830;19.026;2022-08-19T10:42:32;4.65;;;3.30;;
52984;SDS011;40499;47.830;19.026;2022-08-19T10:44:58;6.43;;;4.05;;
52984;SDS011;40499;47.830;19.026;2022-08-19T10:47:23;9.75;;;4.03;;
52984;SDS011;40499;47.830;19.026;2022-08-19T10:49:49;5.50;;;3.53;;
52984;SDS011;40499;47.830;19.026;2022-08-19T10:52:33;5.32;;;3.58;;
52984;SDS011;40499;47.830;19.026;2022-08-19T10:54:59;5.78;;;3.25;;
52984;SDS011;40499;47.830;19.026;2022-08-19T10:57:50;9.80;;;3.70;;
52984;SDS011;40499;47.830;19.026;2022-08-19T11:00:17;4.70;;;2.90;;
52984;SDS011;40499;47.830;19.026;2022-08-19T11:02:47;5.05;;;3.35;;
52984;SDS011;40499;47.830;19.026;2022-08-19T11:05:13;6.82;;;3.38;;
52984;SDS011;40499;47.830;19.026;2022-08-19T11:07:39;6.97;;;3.00;;
52984;SDS011;40499;47.830;19.026;2022-08-19T11:10:06;5.53;;;3.47;;
52984;SDS011;40499;47.830;19.026;2022-08-19T11:12:33;6.05;;;3.40;;
52984;SDS011;40499;47.830;19.026;2022-08-19T11:15:01;6.82;;;3.65;;
52984;SDS011;40499;47.830;19.026;2022-08-19T11:17:27;6.38;;;2.88;;
52984;SDS011;40499;47.830;19.026;2022-08-19T11:19:52;5.07;;;3.58;;
52984;SDS011;40499;47.830;19.026;2022-08-19T11:22:17;9.25;;;2.88;;
52984;SDS011;40499;47.830;19.026;2022-08-19T11:24:43;6.95;;;2.75;;
52984;SDS011;40499;47.830;19.026;2022-08-19T11:27:11;4.57;;;3.53;;
52984;SDS011;40499;47.830;19.026;2022-08-19T11:29:38;7.30;;;3.72;;
52984;SDS011;40499;47.830;19.026;2022-08-19T11:32:05;5.72;;;3.10;;
52984;SDS011;40499;47.830;19.026;2022-08-19T11:34:33;6.72;;;3.25;;
52984;SDS011;40499;47.830;19.026;2022-08-19T11:37:00;8.10;;;3.00;;
52984;SDS011;40499;47.830;19.026;2022-08-19T11:39:27;4.95;;;3.00;;
52984;SDS011;40499;47.830;19.026;2022-08-19T11:41:55;4.45;;;3.15;;
52984;SDS011;40499;47.830;19.026;2022-08-19T11:44:22;5.53;;;3.28;;
52984;SDS011;40499;47.830;19.026;2022-08-19T11:46:48;9.23;;;3.00;;
52984;SDS011;40499;47.830;19.026;2022-08-19T11:49:14;9.70;;;2.90;;
52984;SDS011;40499;47.830;19.026;2022-08-19T11:51:43;5.65;;;2.97;;
52984;SDS011;40499;47.830;19.026;2022-08-19T11:54:10;8.52;;;3.00;;
52984;SDS011;40499;47.830;19.026;2022-08-19T11:56:39;7.22;;;2.92;;
52984;SDS011;40499;47.830;19.026;2022-08-19T11:59:06;6.80;;;2.63;;
52984;SDS011;40499;47.830;19.026;2022-08-19T12:01:32;11.43;;;3.20;;
52984;SDS011;40499;47.830;19.026;2022-08-19T12:03:58;5.28;;;3.08;;
52984;SDS011;40499;47.830;19.026;2022-08-19T12:06:27;6.90;;;3.17;;
52984;SDS011;40499;47.830;19.026;2022-08-19T12:08:58;9.02;;;2.90;;
52984;SDS011;40499;47.830;19.026;2022-08-19T12:11:25;6.00;;;2.67;;
52984;SDS011;40499;47.830;19.026;2022-08-19T12:16:43;11.25;;;3.28;;
52984;SDS011;40499;47.830;19.026;2022-08-19T12:19:14;9.52;;;3.17;;
52984;SDS011;40499;47.830;19.026;2022-08-19T12:21:40;9.05;;;3.00;;
52984;SDS011;40499;47.830;19.026;2022-08-19T12:24:06;7.10;;;3.45;;
52984;SDS011;40499;47.830;19.026;2022-08-19T12:26:32;5.45;;;2.60;;
52984;SDS011;40499;47.830;19.026;2022-08-19T12:29:02;4.35;;;2.50;;
52984;SDS011;40499;47.830;19.026;2022-08-19T12:31:29;8.80;;;2.70;;
52984;SDS011;40499;47.830;19.026;2022-08-19T12:33:57;8.13;;;2.83;;
52984;SDS011;40499;47.830;19.026;2022-08-19T12:36:22;8.43;;;2.88;;
52984;SDS011;40499;47.830;19.026;2022-08-19T12:38:48;5.07;;;2.85;;
52984;SDS011;40499;47.830;19.026;2022-08-19T12:41:15;7.05;;;3.05;;
52984;SDS011;40499;47.830;19.026;2022-08-19T12:43:46;3.97;;;2.50;;
52984;SDS011;40499;47.830;19.026;2022-08-19T12:46:16;5.72;;;2.80;;
52984;SDS011;40499;47.830;19.026;2022-08-19T12:48:45;7.05;;;2.42;;
52984;SDS011;40499;47.830;19.026;2022-08-19T12:51:12;8.98;;;3.10;;
52984;SDS011;40499;47.830;19.026;2022-08-19T12:53:39;8.00;;;3.00;;
52984;SDS011;40499;47.830;19.026;2022-08-19T12:56:11;6.40;;;2.78;;
52984;SDS011;40499;47.830;19.026;2022-08-19T12:58:44;5.88;;;2.97;;
52984;SDS011;40499;47.830;19.026;2022-08-19T13:01:13;5.03;;;2.97;;
52984;SDS011;40499;47.830;19.026;2022-08-19T13:03:41;10.88;;;3.08;;
52984;SDS011;40499;47.830;19.026;2022-08-19T13:06:07;8.93;;;3.25;;
52984;SDS011;40499;47.830;19.026;2022-08-19T13:08:35;8.57;;;2.95;;
52984;SDS011;40499;47.830;19.026;2022-08-19T13:13:46;7.97;;;3.47;;
52984;SDS011;40499;47.830;19.026;2022-08-19T13:16:13;10.73;;;3.10;;
52984;SDS011;40499;47.830;19.026;2022-08-19T13:18:40;10.05;;;3.42;;
52984;SDS011;40499;47.830;19.026;2022-08-19T13:21:07;9.40;;;3.20;;
52984;SDS011;40499;47.830;19.026;2022-08-19T13:23:38;9.95;;;2.80;;
52984;SDS011;40499;47.830;19.026;2022-08-19T13:26:06;9.88;;;2.90;;
52984;SDS011;40499;47.830;19.026;2022-08-19T13:28:39;6.15;;;3.00;;
52984;SDS011;40499;47.830;19.026;2022-08-19T13:31:25;9.48;;;3.53;;
52984;SDS011;40499;47.830;19.026;2022-08-19T13:34:11;9.60;;;3.10;;
52984;SDS011;40499;47.830;19.026;2022-08-19T13:36:37;9.85;;;3.15;;
52984;SDS011;40499;47.830;19.026;2022-08-19T13:39:04;11.48;;;3.80;;
52984;SDS011;40499;47.830;19.026;2022-08-19T13:41:30;6.18;;;3.00;;
52984;SDS011;40499;47.830;19.026;2022-08-19T13:43:56;7.53;;;3.03;;
52984;SDS011;40499;47.830;19.026;2022-08-19T13:46:24;8.50;;;3.47;;
52984;SDS011;40499;47.830;19.026;2022-08-19T13:48:50;7.68;;;3.58;;
52984;SDS011;40499;47.830;19.026;2022-08-19T13:51:16;9.02;;;3.13;;
52984;SDS011;40499;47.830;19.026;2022-08-19T13:53:42;6.88;;;3.38;;
52984;SDS011;40499;47.830;19.026;2022-08-19T13:56:10;10.32;;;3.10;;
52984;SDS011;40499;47.830;19.026;2022-08-19T13:58:38;12.02;;;3.22;;
52984;SDS011;40499;47.830;19.026;2022-08-19T14:01:05;26.42;;;4.32;;
52984;SDS011;40499;47.830;19.026;2022-08-19T14:03:32;15.70;;;3.20;;
52984;SDS011;40499;47.830;19.026;2022-08-19T14:05:58;23.25;;;3.55;;
52984;SDS011;40499;47.830;19.026;2022-08-19T14:08:24;16.00;;;3.50;;
52984;SDS011;40499;47.830;19.026;2022-08-19T14:10:50;18.10;;;3.28;;
52984;SDS011;40499;47.830;19.026;2022-08-19T14:13:18;18.52;;;3.25;;
52984;SDS011;40499;47.830;19.026;2022-08-19T14:15:46;12.77;;;2.92;;
52984;SDS011;40499;47.830;19.026;2022-08-19T14:18:12;12.07;;;2.95;;
52984;SDS011;40499;47.830;19.026;2022-08-19T14:20:38;10.05;;;3.08;;
52984;SDS011;40499;47.830;19.026;2022-08-19T14:23:05;11.32;;;2.90;;
52984;SDS011;40499;47.830;19.026;2022-08-19T14:25:32;16.75;;;2.70;;
52984;SDS011;40499;47.830;19.026;2022-08-19T14:27:58;17.02;;;3.40;;
52984;SDS011;40499;47.830;19.026;2022-08-19T14:30:31;9.60;;;2.35;;
52984;SDS011;40499;47.830;19.026;2022-08-19T14:33:00;8.85;;;2.72;;
52984;SDS011;40499;47.830;19.026;2022-08-19T14:35:27;9.52;;;2.33;;
52984;SDS011;40499;47.830;19.026;2022-08-19T14:37:54;14.25;;;2.92;;
52984;SDS011;40499;47.830;19.026;2022-08-19T14:40:23;15.13;;;4.18;;
52984;SDS011;40499;47.830;19.026;2022-08-19T14:42:54;10.13;;;2.67;;
52984;SDS011;40499;47.830;19.026;2022-08-19T14:45:24;16.95;;;2.47;;
52984;SDS011;40499;47.830;19.026;2022-08-19T14:47:50;9.50;;;2.40;;
52984;SDS011;40499;47.830;19.026;2022-08-19T14:50:16;7.10;;;2.28;;